Shady Shores, Texas
Current Conditions -  °F | °C
As of 4:53 AM on Thursday 27 Nov 2014 (Local Time) from KDTO Reporting Station
Clear Clear  
Wind Chill: 30°   Ceiling: Unl
Heat Index: 34°   Visibility: 10mi
Dew Point: 27°   Wind: 5mph
Humidity: 75%   Direction: 360°N
Pressure: 30.48"   Gusts: NA
Location:  33.1922°N, 97.124°W
Report Text: KDTO 271053Z AUTO 36004KT 10SM CLR 01/M03 A3048 RMK AO2 SLP322 T00111028
Loading
Personal Weather Stations






























Interactive Weather Map New forecast layout! Learn more

10-Day Weather Forecast

Advertisements
Track Severe Weather on mobile